createdAt,value
2018-07-07T00:00:29.725Z,1016.02
2018-07-07T00:01:29.700Z,1016.01
2018-07-07T00:02:29.672Z,1016.03
2018-07-07T00:03:30.102Z,1016.05
2018-07-07T00:04:29.662Z,1016.02
2018-07-07T00:05:29.594Z,1016.02
2018-07-07T00:06:30.559Z,1016.03
2018-07-07T00:07:29.590Z,1016.06
2018-07-07T00:08:29.513Z,1016.08
2018-07-07T00:09:30.054Z,1016.08
2018-07-07T00:10:29.458Z,1016.09
2018-07-07T00:11:29.434Z,1016.11
2018-07-07T00:12:29.606Z,1016.15
2018-07-07T00:13:29.380Z,1016.16
2018-07-07T00:14:29.354Z,1016.16
2018-07-07T00:15:30.062Z,1016.13
2018-07-07T00:16:29.352Z,1016.13
2018-07-07T00:17:30.069Z,1016.10
2018-07-07T00:18:29.290Z,1016.12
2018-07-07T00:19:29.227Z,1016.14
2018-07-07T00:20:29.201Z,1016.18
2018-07-07T00:21:29.175Z,1016.14
2018-07-07T00:22:30.057Z,1016.14
2018-07-07T00:23:29.157Z,1016.16
2018-07-07T00:24:29.095Z,1016.18
2018-07-07T00:25:29.107Z,1016.16
2018-07-07T00:26:29.034Z,1016.17
2018-07-07T00:27:29.018Z,1016.17
2018-07-07T00:28:29.026Z,1016.21
2018-07-07T00:29:28.956Z,1016.20
2018-07-07T00:30:29.556Z,1016.17
2018-07-07T00:31:28.902Z,1016.19
2018-07-07T00:32:28.873Z,1016.18
2018-07-07T00:33:28.895Z,1016.17
2018-07-07T00:34:29.560Z,1016.18
2018-07-07T00:35:28.793Z,1016.15
2018-07-07T00:36:29.558Z,1016.15
2018-07-07T00:37:28.789Z,1016.12
2018-07-07T00:38:28.714Z,1016.13
2018-07-07T00:39:29.559Z,1016.14
2018-07-07T00:40:28.665Z,1016.18
2018-07-07T00:41:28.650Z,1016.15
2018-07-07T00:42:29.108Z,1016.21
2018-07-07T00:43:28.588Z,1016.23
2018-07-07T00:44:28.568Z,1016.22
2018-07-07T00:45:28.575Z,1016.29
2018-07-07T00:46:28.501Z,1016.26
2018-07-07T00:47:28.487Z,1016.28
2018-07-07T00:48:28.456Z,1016.27
2018-07-07T00:49:28.422Z,1016.26
2018-07-07T00:50:28.443Z,1016.27
2018-07-07T00:51:28.428Z,1016.24
2018-07-07T00:52:29.062Z,1016.26
2018-07-07T00:53:28.331Z,1016.26
2018-07-07T00:54:28.322Z,1016.26
2018-07-07T00:55:28.264Z,1016.28
2018-07-07T00:56:28.300Z,1016.27
2018-07-07T00:57:29.062Z,1016.31
2018-07-07T00:58:28.184Z,1016.30
2018-07-07T00:59:28.166Z,1016.27
2018-07-07T01:00:28.125Z,1016.29
2018-07-07T01:01:28.146Z,1016.33
2018-07-07T01:02:29.067Z,1016.29
2018-07-07T01:03:28.046Z,1016.31
2018-07-07T01:04:28.019Z,1016.30
2018-07-07T01:05:27.996Z,1016.30
2018-07-07T01:06:28.012Z,1016.27
2018-07-07T01:07:28.014Z,1016.28
2018-07-07T01:08:28.123Z,1016.27
2018-07-07T01:09:27.902Z,1016.27
2018-07-07T01:10:27.875Z,1016.34
2018-07-07T01:11:27.834Z,1016.31
2018-07-07T01:12:28.125Z,1016.31
2018-07-07T01:13:27.779Z,1016.30
2018-07-07T01:14:27.793Z,1016.30
2018-07-07T01:15:27.721Z,1016.29
2018-07-07T01:16:27.701Z,1016.26
2018-07-07T01:17:28.120Z,1016.32
2018-07-07T01:18:27.685Z,1016.30
2018-07-07T01:19:27.633Z,1016.32
2018-07-07T01:20:27.591Z,1016.28
2018-07-07T01:21:28.067Z,1016.31
2018-07-07T01:22:27.583Z,1016.28
2018-07-07T01:23:28.069Z,1016.27
2018-07-07T01:24:27.480Z,1016.27
2018-07-07T01:25:27.458Z,1016.26
2018-07-07T01:26:28.068Z,1016.28
2018-07-07T01:27:27.437Z,1016.28
2018-07-07T01:28:27.420Z,1016.26
2018-07-07T01:29:28.066Z,1016.30
2018-07-07T01:30:27.358Z,1016.29
2018-07-07T01:31:28.065Z,1016.32
2018-07-07T01:32:27.268Z,1016.28
2018-07-07T01:33:27.236Z,1016.32
2018-07-07T01:34:27.222Z,1016.32
2018-07-07T01:35:27.622Z,1016.32
2018-07-07T01:36:27.159Z,1016.28
2018-07-07T01:37:27.128Z,1016.28
2018-07-07T01:38:27.101Z,1016.31
2018-07-07T01:39:27.073Z,1016.26
2018-07-07T01:40:27.105Z,1016.30
2018-07-07T01:41:27.019Z,1016.30
2018-07-07T01:42:27.040Z,1016.33
2018-07-07T01:43:27.571Z,1016.31
2018-07-07T01:44:26.938Z,1016.30
2018-07-07T01:45:26.957Z,1016.28
2018-07-07T01:46:26.891Z,1016.31
2018-07-07T01:47:26.864Z,1016.29
2018-07-07T01:48:26.827Z,1016.31
2018-07-07T01:49:27.133Z,1016.35
2018-07-07T01:50:26.773Z,1016.30
2018-07-07T01:51:26.790Z,1016.28
2018-07-07T01:52:27.573Z,1016.26
2018-07-07T01:53:26.691Z,1016.28
2018-07-07T01:54:27.574Z,1016.28
2018-07-07T01:55:26.679Z,1016.27
2018-07-07T01:56:26.622Z,1016.23
2018-07-07T01:57:27.574Z,1016.28
2018-07-07T01:58:26.558Z,1016.29
2018-07-07T01:59:26.533Z,1016.31
2018-07-07T02:00:26.569Z,1016.29
2018-07-07T02:01:27.075Z,1016.29
2018-07-07T02:02:26.445Z,1016.25
2018-07-07T02:03:26.417Z,1016.29
2018-07-07T02:04:26.396Z,1016.25
2018-07-07T02:05:26.620Z,1016.27
2018-07-07T02:06:26.338Z,1016.28
2018-07-07T02:07:26.349Z,1016.28
2018-07-07T02:08:27.075Z,1016.29
2018-07-07T02:09:26.305Z,1016.25
2018-07-07T02:10:26.278Z,1016.29
2018-07-07T02:11:26.207Z,1016.28
2018-07-07T02:12:26.228Z,1016.27
2018-07-07T02:13:26.150Z,1016.28
2018-07-07T02:14:26.117Z,1016.27
2018-07-07T02:15:27.075Z,1016.29
2018-07-07T02:16:26.066Z,1016.28
2018-07-07T02:17:26.090Z,1016.26
2018-07-07T02:18:26.576Z,1016.20
2018-07-07T02:19:26.037Z,1016.23
2018-07-07T02:20:25.958Z,1016.22
2018-07-07T02:21:25.930Z,1016.24
2018-07-07T02:22:25.900Z,1016.27
2018-07-07T02:23:25.884Z,1016.26
2018-07-07T02:24:26.145Z,1016.30
2018-07-07T02:25:25.818Z,1016.27
2018-07-07T02:26:25.791Z,1016.30
2018-07-07T02:27:25.767Z,1016.27
2018-07-07T02:28:25.734Z,1016.26
2018-07-07T02:29:25.763Z,1016.25
2018-07-07T02:30:25.677Z,1016.27
2018-07-07T02:31:25.654Z,1016.29
2018-07-07T02:32:26.575Z,1016.30
2018-07-07T02:33:25.599Z,1016.32
2018-07-07T02:34:25.631Z,1016.28
2018-07-07T02:35:25.585Z,1016.33
2018-07-07T02:36:25.517Z,1016.35
2018-07-07T02:37:26.080Z,1016.37
2018-07-07T02:38:25.463Z,1016.33
2018-07-07T02:39:26.078Z,1016.37
2018-07-07T02:40:25.445Z,1016.39
2018-07-07T02:41:26.081Z,1016.39
2018-07-07T02:42:25.401Z,1016.38
2018-07-07T02:43:25.326Z,1016.38
2018-07-07T02:44:25.365Z,1016.38
2018-07-07T02:45:26.078Z,1016.42
2018-07-07T02:46:25.261Z,1016.38
2018-07-07T02:47:25.260Z,1016.40
2018-07-07T02:48:26.088Z,1016.40
2018-07-07T02:49:25.164Z,1016.39
2018-07-07T02:50:25.129Z,1016.41
2018-07-07T02:51:25.103Z,1016.40
2018-07-07T02:52:25.117Z,1016.41
2018-07-07T02:53:25.581Z,1016.47
2018-07-07T02:54:25.581Z,1016.46
2018-07-07T02:55:24.986Z,1016.45
2018-07-07T02:56:25.580Z,1016.42
2018-07-07T02:57:24.989Z,1016.43
2018-07-07T02:58:24.904Z,1016.40
2018-07-07T02:59:24.882Z,1016.40
2018-07-07T03:00:25.582Z,1016.40
2018-07-07T03:01:24.826Z,1016.42
2018-07-07T03:02:24.842Z,1016.40
2018-07-07T03:03:24.818Z,1016.39
2018-07-07T03:04:24.743Z,1016.42
2018-07-07T03:05:24.712Z,1016.41
2018-07-07T03:06:25.583Z,1016.41
2018-07-07T03:07:24.701Z,1016.39
2018-07-07T03:08:24.629Z,1016.41
2018-07-07T03:09:25.140Z,1016.43
2018-07-07T03:10:24.578Z,1016.42
2018-07-07T03:11:25.082Z,1016.44
2018-07-07T03:12:24.571Z,1016.46
2018-07-07T03:13:24.492Z,1016.43
2018-07-07T03:14:24.463Z,1016.48
2018-07-07T03:15:24.488Z,1016.47
2018-07-07T03:16:24.649Z,1016.46
2018-07-07T03:17:24.381Z,1016.49
2018-07-07T03:18:24.356Z,1016.45
2018-07-07T03:19:25.087Z,1016.46
2018-07-07T03:20:24.345Z,1016.46
2018-07-07T03:21:24.274Z,1016.49
2018-07-07T03:22:24.640Z,1016.46
2018-07-07T03:23:24.215Z,1016.46
2018-07-07T03:24:24.193Z,1016.43
2018-07-07T03:25:24.639Z,1016.51
2018-07-07T03:26:24.137Z,1016.50
2018-07-07T03:27:24.160Z,1016.50
2018-07-07T03:28:24.078Z,1016.50
2018-07-07T03:29:24.598Z,1016.54
2018-07-07T03:30:24.076Z,1016.55
2018-07-07T03:31:24.004Z,1016.57
2018-07-07T03:32:23.968Z,1016.52
2018-07-07T03:33:24.587Z,1016.57
2018-07-07T03:34:23.959Z,1016.55
2018-07-07T03:35:23.887Z,1016.57
2018-07-07T03:36:23.866Z,1016.53
2018-07-07T03:37:24.589Z,1016.55
2018-07-07T03:38:23.802Z,1016.58
2018-07-07T03:39:23.837Z,1016.58
2018-07-07T03:40:24.638Z,1016.58
2018-07-07T03:41:23.720Z,1016.63
2018-07-07T03:42:23.697Z,1016.59
2018-07-07T03:43:23.673Z,1016.63
2018-07-07T03:44:24.143Z,1016.63
2018-07-07T03:45:23.609Z,1016.61
2018-07-07T03:46:23.585Z,1016.64
2018-07-07T03:47:23.601Z,1016.65
2018-07-07T03:48:23.533Z,1016.65
2018-07-07T03:49:24.201Z,1016.66
2018-07-07T03:50:23.471Z,1016.70
2018-07-07T03:51:23.445Z,1016.71
2018-07-07T03:52:23.472Z,1016.71
2018-07-07T03:53:24.092Z,1016.69
2018-07-07T03:54:23.362Z,1016.73
2018-07-07T03:55:23.333Z,1016.75
2018-07-07T03:56:23.308Z,1016.71
2018-07-07T03:57:23.656Z,1016.73
2018-07-07T03:58:23.249Z,1016.75
2018-07-07T03:59:23.225Z,1016.78
2018-07-07T04:00:23.202Z,1016.77
2018-07-07T04:01:24.091Z,1016.78
2018-07-07T04:02:23.191Z,1016.80
2018-07-07T04:03:23.127Z,1016.82
2018-07-07T04:04:23.137Z,1016.84
2018-07-07T04:05:23.599Z,1016.83
2018-07-07T04:06:23.038Z,1016.83
2018-07-07T04:07:23.029Z,1016.82
2018-07-07T04:08:22.993Z,1016.78
2018-07-07T04:09:23.002Z,1016.83
2018-07-07T04:10:23.597Z,1016.85
2018-07-07T04:11:22.926Z,1016.84
2018-07-07T04:12:22.877Z,1016.88
2018-07-07T04:13:23.605Z,1016.90
2018-07-07T04:14:22.854Z,1016.85
2018-07-07T04:15:22.837Z,1016.85
2018-07-07T04:16:23.614Z,1016.86
2018-07-07T04:17:22.750Z,1016.85
2018-07-07T04:18:22.713Z,1016.84
2018-07-07T04:19:22.681Z,1016.86
2018-07-07T04:20:22.701Z,1016.85
2018-07-07T04:21:23.595Z,1016.90
2018-07-07T04:22:22.598Z,1016.88
2018-07-07T04:23:22.571Z,1016.84
2018-07-07T04:24:22.590Z,1016.85
2018-07-07T04:25:22.579Z,1016.83
2018-07-07T04:26:22.494Z,1016.82
2018-07-07T04:27:22.478Z,1016.83
2018-07-07T04:28:22.440Z,1016.81
2018-07-07T04:29:22.425Z,1016.84
2018-07-07T04:30:22.430Z,1016.88
2018-07-07T04:31:22.433Z,1016.83
2018-07-07T04:32:22.376Z,1016.87
2018-07-07T04:33:22.315Z,1016.85
2018-07-07T04:34:22.275Z,1016.85
2018-07-07T04:35:22.248Z,1016.83
2018-07-07T04:36:22.281Z,1016.87
2018-07-07T04:37:23.101Z,1016.88
2018-07-07T04:38:22.166Z,1016.86
2018-07-07T04:39:22.150Z,1016.89
2018-07-07T04:40:23.099Z,1016.95
2018-07-07T04:41:22.144Z,1016.91
2018-07-07T04:42:22.068Z,1016.92
2018-07-07T04:43:22.034Z,1016.92
2018-07-07T04:44:22.599Z,1016.92
2018-07-07T04:45:21.993Z,1016.95
2018-07-07T04:46:22.012Z,1016.94
2018-07-07T04:47:22.620Z,1016.90
2018-07-07T04:48:21.909Z,1016.86
2018-07-07T04:49:21.877Z,1016.85
2018-07-07T04:50:21.848Z,1016.84
2018-07-07T04:51:22.700Z,1016.86
2018-07-07T04:52:21.843Z,1016.85
2018-07-07T04:53:21.781Z,1016.85
2018-07-07T04:54:21.744Z,1016.85
2018-07-07T04:55:21.720Z,1016.87
2018-07-07T04:56:22.165Z,1016.87
2018-07-07T04:57:21.665Z,1016.84
2018-07-07T04:58:21.683Z,1016.85
2018-07-07T04:59:21.615Z,1016.88
2018-07-07T05:00:21.595Z,1016.90
2018-07-07T05:01:21.561Z,1016.95
2018-07-07T05:02:21.534Z,1016.94
2018-07-07T05:03:21.551Z,1016.95
2018-07-07T05:04:21.481Z,1016.94
2018-07-07T05:05:22.102Z,1016.95
2018-07-07T05:06:21.434Z,1017.01
2018-07-07T05:07:21.411Z,1016.97
2018-07-07T05:08:21.668Z,1017.01
2018-07-07T05:09:21.350Z,1017.01
2018-07-07T05:10:21.325Z,1017.05
2018-07-07T05:11:21.308Z,1017.05
2018-07-07T05:12:22.120Z,1017.08
2018-07-07T05:13:21.287Z,1017.03
2018-07-07T05:14:21.224Z,1017.07
2018-07-07T05:15:21.265Z,1017.07
2018-07-07T05:16:21.174Z,1017.10
2018-07-07T05:17:21.270Z,1017.12
2018-07-07T05:18:21.164Z,1017.13
2018-07-07T05:19:21.096Z,1017.15
2018-07-07T05:20:21.075Z,1017.14
2018-07-07T05:21:21.106Z,1017.15
2018-07-07T05:22:21.615Z,1017.16
2018-07-07T05:23:21.034Z,1017.17
2018-07-07T05:24:21.033Z,1017.20
2018-07-07T05:25:20.952Z,1017.17
2018-07-07T05:26:20.913Z,1017.14
2018-07-07T05:27:21.609Z,1017.19
2018-07-07T05:28:20.864Z,1017.19
2018-07-07T05:29:20.874Z,1017.13
2018-07-07T05:30:20.863Z,1017.16
2018-07-07T05:31:20.785Z,1017.17
2018-07-07T05:32:21.608Z,1017.16
2018-07-07T05:33:20.737Z,1017.14
2018-07-07T05:34:20.707Z,1017.17
2018-07-07T05:35:20.741Z,1017.17
2018-07-07T05:36:20.663Z,1017.15
2018-07-07T05:37:20.664Z,1017.18
2018-07-07T05:38:20.655Z,1017.18
2018-07-07T05:39:21.109Z,1017.13
2018-07-07T05:40:20.581Z,1017.14
2018-07-07T05:41:20.585Z,1017.18
2018-07-07T05:42:20.552Z,1017.16
2018-07-07T05:43:20.520Z,1017.20
2018-07-07T05:44:20.458Z,1017.16
2018-07-07T05:45:20.433Z,1017.15
2018-07-07T05:46:20.458Z,1017.13
2018-07-07T05:47:20.425Z,1017.17
2018-07-07T05:48:20.363Z,1017.18
2018-07-07T05:49:20.337Z,1017.16
2018-07-07T05:50:20.325Z,1017.18
2018-07-07T05:51:20.289Z,1017.22
2018-07-07T05:52:20.308Z,1017.23
2018-07-07T05:53:20.278Z,1017.25
2018-07-07T05:54:20.214Z,1017.27
2018-07-07T05:55:20.182Z,1017.27
2018-07-07T05:56:20.176Z,1017.25
2018-07-07T05:57:20.161Z,1017.20
2018-07-07T05:58:20.169Z,1017.28
2018-07-07T05:59:20.092Z,1017.27
2018-07-07T06:00:20.060Z,1017.27
2018-07-07T06:01:20.035Z,1017.20
2018-07-07T06:02:20.068Z,1017.21
2018-07-07T06:03:19.983Z,1017.17
2018-07-07T06:04:19.961Z,1017.16
2018-07-07T06:05:19.933Z,1017.19
2018-07-07T06:06:19.909Z,1017.17
2018-07-07T06:07:20.174Z,1017.22
2018-07-07T06:08:19.905Z,1017.21
2018-07-07T06:09:19.833Z,1017.16
2018-07-07T06:10:19.812Z,1017.18
2018-07-07T06:11:19.781Z,1017.21
2018-07-07T06:12:19.770Z,1017.15
2018-07-07T06:13:19.774Z,1017.15
2018-07-07T06:14:19.741Z,1017.17
2018-07-07T06:15:19.681Z,1017.17
2018-07-07T06:16:19.704Z,1017.17
2018-07-07T06:17:19.632Z,1017.18
2018-07-07T06:18:19.620Z,1017.17
2018-07-07T06:19:19.625Z,1017.25
2018-07-07T06:20:19.598Z,1017.23
2018-07-07T06:21:19.534Z,1017.13
2018-07-07T06:22:19.505Z,1017.15
2018-07-07T06:23:19.486Z,1017.11
2018-07-07T06:24:19.503Z,1017.14
2018-07-07T06:25:19.471Z,1017.09
2018-07-07T06:26:19.412Z,1017.17
2018-07-07T06:27:19.383Z,1017.17
2018-07-07T06:28:19.359Z,1017.15
2018-07-07T06:29:19.378Z,1017.25
2018-07-07T06:30:19.327Z,1017.26
2018-07-07T06:31:19.282Z,1017.18
2018-07-07T06:32:19.676Z,1017.21
2018-07-07T06:33:19.236Z,1017.15
2018-07-07T06:34:19.343Z,1017.17
2018-07-07T06:35:19.222Z,1017.18
2018-07-07T06:36:19.154Z,1017.18
2018-07-07T06:37:19.230Z,1017.21
2018-07-07T06:38:19.142Z,1017.20
2018-07-07T06:39:19.081Z,1017.23
2018-07-07T06:40:19.108Z,1017.25
2018-07-07T06:41:19.027Z,1017.24
2018-07-07T06:42:19.641Z,1017.21
2018-07-07T06:43:18.974Z,1017.20
2018-07-07T06:44:18.950Z,1017.20
2018-07-07T06:45:18.973Z,1017.18
2018-07-07T06:46:19.623Z,1017.22
2018-07-07T06:47:18.876Z,1017.15
2018-07-07T06:48:19.171Z,1017.16
2018-07-07T06:49:18.826Z,1017.19
2018-07-07T06:50:19.626Z,1017.14
2018-07-07T06:51:18.821Z,1017.15
2018-07-07T06:52:18.752Z,1017.13
2018-07-07T06:53:18.734Z,1017.15
2018-07-07T06:54:18.708Z,1017.16
2018-07-07T06:55:19.183Z,1017.18
2018-07-07T06:56:18.653Z,1017.15
2018-07-07T06:57:18.663Z,1017.12
2018-07-07T06:58:18.664Z,1017.15
2018-07-07T06:59:18.576Z,1017.13
2018-07-07T07:00:18.551Z,1017.12
2018-07-07T07:01:18.542Z,1017.11
2018-07-07T07:02:18.504Z,1017.12
2018-07-07T07:03:18.528Z,1017.11
2018-07-07T07:04:18.464Z,1017.12
2018-07-07T07:05:18.425Z,1017.23
2018-07-07T07:06:18.401Z,1017.15
2018-07-07T07:07:18.380Z,1017.14
2018-07-07T07:08:18.409Z,1017.17
2018-07-07T07:09:18.330Z,1017.15
2018-07-07T07:10:18.304Z,1017.16
2018-07-07T07:11:18.285Z,1017.21
2018-07-07T07:12:18.256Z,1017.19
2018-07-07T07:13:18.273Z,1017.17
2018-07-07T07:14:18.243Z,1017.19
2018-07-07T07:15:18.227Z,1017.17
2018-07-07T07:16:18.170Z,1017.21
2018-07-07T07:17:18.133Z,1017.24
2018-07-07T07:18:18.110Z,1017.17
2018-07-07T07:19:18.133Z,1017.17
2018-07-07T07:20:18.108Z,1017.19
2018-07-07T07:21:18.031Z,1017.23
2018-07-07T07:22:18.009Z,1017.27
2018-07-07T07:23:17.985Z,1017.22
2018-07-07T07:24:18.006Z,1017.21
2018-07-07T07:25:17.974Z,1017.22
2018-07-07T07:26:17.998Z,1017.27
2018-07-07T07:27:17.929Z,1017.22
2018-07-07T07:28:17.860Z,1017.26
2018-07-07T07:29:17.860Z,1017.25
2018-07-07T07:30:17.810Z,1017.21
2018-07-07T07:31:17.800Z,1017.16
2018-07-07T07:32:17.817Z,1017.19
2018-07-07T07:33:17.739Z,1017.24
2018-07-07T07:34:17.713Z,1017.19
2018-07-07T07:35:17.689Z,1017.25
2018-07-07T07:36:17.704Z,1017.24
2018-07-07T07:37:17.688Z,1017.18
2018-07-07T07:38:18.135Z,1017.27
2018-07-07T07:39:17.621Z,1017.26
2018-07-07T07:40:17.568Z,1017.21
2018-07-07T07:41:17.544Z,1017.20
2018-07-07T07:42:17.565Z,1017.25
2018-07-07T07:43:17.554Z,1017.21
2018-07-07T07:44:17.472Z,1017.20
2018-07-07T07:45:17.445Z,1017.28
2018-07-07T07:46:17.421Z,1017.25
2018-07-07T07:47:17.695Z,1017.25
2018-07-07T07:48:17.375Z,1017.24
2018-07-07T07:49:17.364Z,1017.22
2018-07-07T07:50:17.326Z,1017.23
2018-07-07T07:51:17.356Z,1017.25
2018-07-07T07:52:17.316Z,1017.25
2018-07-07T07:53:17.258Z,1017.21
2018-07-07T07:54:17.236Z,1017.22
2018-07-07T07:55:17.207Z,1017.28
2018-07-07T07:56:17.184Z,1017.28
2018-07-07T07:57:17.214Z,1017.26
2018-07-07T07:58:17.138Z,1017.28
2018-07-07T07:59:17.116Z,1017.26
2018-07-07T08:00:17.088Z,1017.25
2018-07-07T08:01:17.071Z,1017.22
2018-07-07T08:02:17.100Z,1017.19
2018-07-07T08:03:17.049Z,1017.20
2018-07-07T08:04:16.996Z,1017.23
2018-07-07T08:05:16.976Z,1017.18
2018-07-07T08:06:16.950Z,1017.18
2018-07-07T08:07:16.990Z,1017.22
2018-07-07T08:08:16.909Z,1017.15
2018-07-07T08:09:16.890Z,1017.14
2018-07-07T08:10:16.914Z,1017.16
2018-07-07T08:11:16.852Z,1017.15
2018-07-07T08:12:17.213Z,1017.16
2018-07-07T08:13:16.798Z,1017.14
2018-07-07T08:14:16.791Z,1017.13
2018-07-07T08:15:16.750Z,1017.10
2018-07-07T08:16:16.727Z,1017.14
2018-07-07T08:17:17.203Z,1017.09
2018-07-07T08:18:16.684Z,1017.07
2018-07-07T08:19:16.715Z,1017.08
2018-07-07T08:20:16.635Z,1017.09
2018-07-07T08:21:16.628Z,1017.08
2018-07-07T08:22:17.147Z,1017.07
2018-07-07T08:23:16.617Z,1017.08
2018-07-07T08:24:16.548Z,1017.13
2018-07-07T08:25:16.525Z,1017.18
2018-07-07T08:26:16.544Z,1017.17
2018-07-07T08:27:16.507Z,1017.12
2018-07-07T08:28:16.455Z,1017.12
2018-07-07T08:29:16.477Z,1017.08
2018-07-07T08:30:16.424Z,1017.11
2018-07-07T08:31:16.384Z,1017.08
2018-07-07T08:32:16.371Z,1017.11
2018-07-07T08:33:16.386Z,1017.11
2018-07-07T08:34:16.316Z,1017.09
2018-07-07T08:35:16.290Z,1017.06
2018-07-07T08:36:16.269Z,1017.12
2018-07-07T08:37:16.245Z,1017.10
2018-07-07T08:38:16.272Z,1017.03
2018-07-07T08:39:16.205Z,1017.07
2018-07-07T08:40:16.176Z,1017.12
2018-07-07T08:41:16.151Z,1017.03
2018-07-07T08:42:16.130Z,1017.04
2018-07-07T08:43:16.158Z,1016.98
2018-07-07T08:44:16.086Z,1017.05
2018-07-07T08:45:16.067Z,1017.11
2018-07-07T08:46:16.033Z,1017.13
2018-07-07T08:47:16.024Z,1017.03
2018-07-07T08:48:16.035Z,1016.95
2018-07-07T08:49:16.001Z,1016.98
2018-07-07T08:50:15.991Z,1016.92
2018-07-07T08:51:15.921Z,1016.90
2018-07-07T08:52:15.936Z,1016.88
2018-07-07T08:53:15.872Z,1016.95
2018-07-07T08:54:15.850Z,1016.92
2018-07-07T08:55:15.875Z,1016.99
2018-07-07T08:56:15.805Z,1016.99
2018-07-07T08:57:15.785Z,1017.00
2018-07-07T08:58:15.802Z,1017.02
2018-07-07T08:59:15.739Z,1016.90
2018-07-07T09:00:15.714Z,1017.00
2018-07-07T09:01:15.737Z,1016.90
2018-07-07T09:02:15.681Z,1016.97
2018-07-07T09:03:15.651Z,1016.90
2018-07-07T09:04:15.632Z,1016.81
2018-07-07T09:05:16.157Z,1016.96
2018-07-07T09:06:15.584Z,1016.89
2018-07-07T09:07:15.604Z,1016.86
2018-07-07T09:08:15.536Z,1016.89
2018-07-07T09:09:15.516Z,1016.90
2018-07-07T09:10:15.498Z,1016.90
2018-07-07T09:11:15.512Z,1016.97
2018-07-07T09:12:15.445Z,1017.01
2018-07-07T09:13:15.501Z,1016.89
2018-07-07T09:14:15.404Z,1016.92
2018-07-07T09:15:15.401Z,1016.91
2018-07-07T09:16:15.407Z,1016.88
2018-07-07T09:17:15.335Z,1016.89
2018-07-07T09:18:15.312Z,1016.84
2018-07-07T09:19:15.291Z,1016.80
2018-07-07T09:20:15.308Z,1016.94
2018-07-07T09:21:15.312Z,1016.85
2018-07-07T09:22:15.219Z,1016.81
2018-07-07T09:23:15.211Z,1016.83
2018-07-07T09:24:15.175Z,1016.84
2018-07-07T09:25:15.218Z,1016.85
2018-07-07T09:26:15.132Z,1016.86
2018-07-07T09:27:15.113Z,1016.84
2018-07-07T09:28:15.097Z,1016.79
2018-07-07T09:29:15.064Z,1016.77
2018-07-07T09:30:15.092Z,1016.69
2018-07-07T09:31:15.063Z,1016.70
2018-07-07T09:32:15.661Z,1016.73
2018-07-07T09:33:14.974Z,1016.76
2018-07-07T09:34:14.953Z,1016.85
2018-07-07T09:35:14.969Z,1016.69
2018-07-07T09:36:14.977Z,1016.72
2018-07-07T09:37:16.570Z,1016.72
2018-07-07T09:38:14.863Z,1016.76
2018-07-07T09:39:14.895Z,1016.76
2018-07-07T09:40:14.821Z,1016.79
2018-07-07T09:41:14.844Z,1016.73
2018-07-07T09:42:15.665Z,1016.77
2018-07-07T09:43:14.772Z,1016.77
2018-07-07T09:44:14.739Z,1016.75
2018-07-07T09:45:14.709Z,1016.68
2018-07-07T09:46:14.726Z,1016.71
2018-07-07T09:47:14.702Z,1016.70
2018-07-07T09:48:14.641Z,1016.70
2018-07-07T09:49:14.620Z,1016.74
2018-07-07T09:50:14.597Z,1016.77
2018-07-07T09:51:14.622Z,1016.71
2018-07-07T09:52:14.564Z,1016.74
2018-07-07T09:53:14.541Z,1016.67
2018-07-07T09:54:14.518Z,1016.63
2018-07-07T09:55:14.493Z,1016.68
2018-07-07T09:56:14.531Z,1016.67
2018-07-07T09:57:14.486Z,1016.60
2018-07-07T09:58:14.420Z,1016.69
2018-07-07T09:59:14.397Z,1016.65
2018-07-07T10:00:14.379Z,1016.62
2018-07-07T10:01:14.395Z,1016.62
2018-07-07T10:02:14.338Z,1016.65
2018-07-07T10:03:14.331Z,1016.69
2018-07-07T10:04:14.299Z,1016.69
2018-07-07T10:05:14.316Z,1016.69
2018-07-07T10:06:14.245Z,1016.67
2018-07-07T10:07:14.273Z,1016.55
2018-07-07T10:08:14.200Z,1016.63
2018-07-07T10:09:14.175Z,1016.67
2018-07-07T10:10:14.154Z,1016.67
2018-07-07T10:11:14.147Z,1016.68
2018-07-07T10:12:14.197Z,1016.74
2018-07-07T10:13:14.090Z,1016.71
2018-07-07T10:14:14.063Z,1016.72
2018-07-07T10:15:14.047Z,1016.65
2018-07-07T10:16:14.071Z,1016.68
2018-07-07T10:17:14.000Z,1016.81
2018-07-07T10:18:14.039Z,1016.76
2018-07-07T10:19:13.956Z,1016.86
2018-07-07T10:20:13.941Z,1016.72
2018-07-07T10:21:13.963Z,1016.70
2018-07-07T10:22:13.892Z,1016.72
2018-07-07T10:23:13.921Z,1016.66
2018-07-07T10:24:13.849Z,1016.64
2018-07-07T10:25:13.827Z,1016.68
2018-07-07T10:26:13.844Z,1016.72
2018-07-07T10:27:13.784Z,1016.79
2018-07-07T10:28:13.807Z,1016.75
2018-07-07T10:29:13.763Z,1016.85
2018-07-07T10:30:13.722Z,1016.77
2018-07-07T10:31:13.709Z,1016.79
2018-07-07T10:32:13.678Z,1016.70
2018-07-07T10:33:13.698Z,1016.72
2018-07-07T10:34:13.692Z,1016.72
2018-07-07T10:35:13.607Z,1016.63
2018-07-07T10:36:13.596Z,1016.68
2018-07-07T10:37:13.570Z,1016.57
2018-07-07T10:38:13.628Z,1016.66
2018-07-07T10:39:13.527Z,1016.63
2018-07-07T10:40:13.504Z,1016.69
2018-07-07T10:41:13.492Z,1016.67
2018-07-07T10:42:13.471Z,1016.65
2018-07-07T10:43:13.501Z,1016.68
2018-07-07T10:44:13.432Z,1016.69
2018-07-07T10:45:13.408Z,1016.70
2018-07-07T10:46:13.459Z,1016.64
2018-07-07T10:47:13.399Z,1016.66
2018-07-07T10:48:13.330Z,1016.69
2018-07-07T10:49:13.351Z,1016.62
2018-07-07T10:50:13.338Z,1016.60
2018-07-07T10:51:13.267Z,1016.61
2018-07-07T10:52:13.251Z,1016.61
2018-07-07T10:53:13.222Z,1016.62
2018-07-07T10:54:13.202Z,1016.65
2018-07-07T10:55:13.236Z,1016.55
2018-07-07T10:56:13.167Z,1016.63
2018-07-07T10:57:13.173Z,1016.57
2018-07-07T10:58:13.117Z,1016.62
2018-07-07T10:59:13.108Z,1016.60
2018-07-07T11:00:13.119Z,1016.56
2018-07-07T11:01:13.051Z,1016.58
2018-07-07T11:02:13.032Z,1016.52
2018-07-07T11:03:13.052Z,1016.64
2018-07-07T11:04:13.063Z,1016.57
2018-07-07T11:05:13.011Z,1016.58
2018-07-07T11:06:12.963Z,1016.67
2018-07-07T11:07:12.926Z,1016.57
2018-07-07T11:08:13.690Z,1016.50
2018-07-07T11:09:12.888Z,1016.51
2018-07-07T11:10:12.941Z,1016.55
2018-07-07T11:11:12.839Z,1016.56
2018-07-07T11:12:12.824Z,1016.58
2018-07-07T11:13:12.804Z,1016.56
2018-07-07T11:14:12.778Z,1016.53
2018-07-07T11:15:12.808Z,1016.45
2018-07-07T11:16:12.735Z,1016.46
2018-07-07T11:17:12.728Z,1016.51
2018-07-07T11:18:14.942Z,1016.64
2018-07-07T11:19:12.676Z,1016.54
2018-07-07T11:20:12.662Z,1016.42
2018-07-07T11:21:12.681Z,1016.57
2018-07-07T11:22:12.613Z,1016.46
2018-07-07T11:23:12.654Z,1016.50
2018-07-07T11:24:12.568Z,1016.44
2018-07-07T11:25:12.549Z,1016.55
2018-07-07T11:26:12.536Z,1016.52
2018-07-07T11:27:12.516Z,1016.46
2018-07-07T11:28:12.544Z,1016.53
2018-07-07T11:29:12.464Z,1016.43
2018-07-07T11:30:12.450Z,1016.39
2018-07-07T11:31:12.424Z,1016.37
2018-07-07T11:32:12.405Z,1016.43
2018-07-07T11:33:12.424Z,1016.41
2018-07-07T11:34:12.403Z,1016.37
2018-07-07T11:35:12.339Z,1016.30
2018-07-07T11:36:12.346Z,1016.44
2018-07-07T11:37:12.303Z,1016.42
2018-07-07T11:38:12.285Z,1016.40
2018-07-07T11:39:12.301Z,1016.41
2018-07-07T11:40:12.239Z,1016.38
2018-07-07T11:41:12.216Z,1016.40
2018-07-07T11:42:12.231Z,1016.47
2018-07-07T11:43:12.181Z,1016.37
2018-07-07T11:44:12.201Z,1016.36
2018-07-07T11:45:12.147Z,1016.49
2018-07-07T11:46:12.114Z,1016.46
2018-07-07T11:47:12.101Z,1016.38
2018-07-07T11:48:12.076Z,1016.36
2018-07-07T11:49:12.099Z,1016.35
2018-07-07T11:50:12.053Z,1016.27
2018-07-07T11:51:12.767Z,1016.29
2018-07-07T11:52:12.818Z,1016.32
2018-07-07T11:53:12.012Z,1016.20
2018-07-07T11:54:11.972Z,1016.25
2018-07-07T11:55:11.980Z,1016.28
2018-07-07T11:56:11.913Z,1016.29
2018-07-07T11:57:11.994Z,1016.36
2018-07-07T11:58:11.871Z,1016.35
2018-07-07T11:59:11.847Z,1016.37
2018-07-07T12:00:11.827Z,1016.31
2018-07-07T12:01:11.805Z,1016.37
2018-07-07T12:02:11.843Z,1016.45
2018-07-07T12:03:11.767Z,1016.24
2018-07-07T12:04:11.745Z,1016.30
2018-07-07T12:05:11.730Z,1016.33